sensor_id;sensor_type;location;lat;lon;timestamp;temperature;humidity
4602;DHT22;2313;48.552;9.370;2023-03-12T00:01:18;-0.10;99.90
4602;DHT22;2313;48.552;9.370;2023-03-12T00:03:44;0.00;99.90
4602;DHT22;2313;48.552;9.370;2023-03-12T00:06:10;0.00;99.90
4602;DHT22;2313;48.552;9.370;2023-03-12T00:08:36;-0.10;99.90
4602;DHT22;2313;48.552;9.370;2023-03-12T00:11:06;-0.10;99.90
4602;DHT22;2313;48.552;9.370;2023-03-12T00:13:32;0.00;99.90
4602;DHT22;2313;48.552;9.370;2023-03-12T00:16:03;0.00;99.90
4602;DHT22;2313;48.552;9.370;2023-03-12T00:18:28;-0.10;99.90
4602;DHT22;2313;48.552;9.370;2023-03-12T00:20:54;-0.10;99.90
4602;DHT22;2313;48.552;9.370;2023-03-12T00:23:20;-0.10;99.90
4602;DHT22;2313;48.552;9.370;2023-03-12T00:25:46;-0.10;99.90
4602;DHT22;2313;48.552;9.370;2023-03-12T00:28:11;-0.10;99.90
4602;DHT22;2313;48.552;9.370;2023-03-12T00:30:37;-0.20;99.90
4602;DHT22;2313;48.552;9.370;2023-03-12T00:33:04;-0.20;99.90
4602;DHT22;2313;48.552;9.370;2023-03-12T00:35:31;-0.20;99.90
4602;DHT22;2313;48.552;9.370;2023-03-12T00:37:57;-0.10;99.90
4602;DHT22;2313;48.552;9.370;2023-03-12T00:40:22;-0.10;99.90
4602;DHT22;2313;48.552;9.370;2023-03-12T00:42:48;-0.20;99.90
4602;DHT22;2313;48.552;9.370;2023-03-12T00:45:14;-0.20;99.90
4602;DHT22;2313;48.552;9.370;2023-03-12T00:47:39;-0.20;99.90
4602;DHT22;2313;48.552;9.370;2023-03-12T00:50:05;-0.10;99.90
4602;DHT22;2313;48.552;9.370;2023-03-12T00:52:31;-0.20;99.90
4602;DHT22;2313;48.552;9.370;2023-03-12T00:54:56;-0.20;99.90
4602;DHT22;2313;48.552;9.370;2023-03-12T00:57:23;-0.30;99.90
4602;DHT22;2313;48.552;9.370;2023-03-12T00:59:49;-0.30;99.90
4602;DHT22;2313;48.552;9.370;2023-03-12T01:02:14;-0.40;99.90
4602;DHT22;2313;48.552;9.370;2023-03-12T01:04:40;-0.40;99.90
4602;DHT22;2313;48.552;9.370;2023-03-12T01:07:06;-0.40;99.90
4602;DHT22;2313;48.552;9.370;2023-03-12T01:09:31;-0.50;99.90
4602;DHT22;2313;48.552;9.370;2023-03-12T01:11:57;-0.50;99.90
4602;DHT22;2313;48.552;9.370;2023-03-12T01:14:22;-0.50;99.90
4602;DHT22;2313;48.552;9.370;2023-03-12T01:16:48;-0.50;99.90
4602;DHT22;2313;48.552;9.370;2023-03-12T01:19:14;-0.50;99.90
4602;DHT22;2313;48.552;9.370;2023-03-12T01:21:40;-0.30;99.90
4602;DHT22;2313;48.552;9.370;2023-03-12T01:24:06;-0.30;99.90
4602;DHT22;2313;48.552;9.370;2023-03-12T01:26:32;-0.30;99.90
4602;DHT22;2313;48.552;9.370;2023-03-12T01:28:58;-0.20;99.90
4602;DHT22;2313;48.552;9.370;2023-03-12T01:31:23;-0.20;99.90
4602;DHT22;2313;48.552;9.370;2023-03-12T01:33:50;-0.20;99.90
4602;DHT22;2313;48.552;9.370;2023-03-12T01:36:25;-0.10;99.90
4602;DHT22;2313;48.552;9.370;2023-03-12T01:38:58;0.00;99.90
4602;DHT22;2313;48.552;9.370;2023-03-12T01:41:26;0.00;99.90
4602;DHT22;2313;48.552;9.370;2023-03-12T01:43:52;0.00;99.90
4602;DHT22;2313;48.552;9.370;2023-03-12T01:46:23;0.00;99.90
4602;DHT22;2313;48.552;9.370;2023-03-12T01:51:26;-0.10;99.90
4602;DHT22;2313;48.552;9.370;2023-03-12T01:53:54;0.00;99.90
4602;DHT22;2313;48.552;9.370;2023-03-12T01:56:27;0.00;99.90
4602;DHT22;2313;48.552;9.370;2023-03-12T01:58:57;0.10;99.90
4602;DHT22;2313;48.552;9.370;2023-03-12T02:01:24;0.20;99.90
4602;DHT22;2313;48.552;9.370;2023-03-12T02:03:51;0.20;99.90
4602;DHT22;2313;48.552;9.370;2023-03-12T02:06:22;0.30;99.90
4602;DHT22;2313;48.552;9.370;2023-03-12T02:08:50;0.30;99.90
4602;DHT22;2313;48.552;9.370;2023-03-12T02:11:16;0.30;99.90
4602;DHT22;2313;48.552;9.370;2023-03-12T02:13:41;0.40;99.90
4602;DHT22;2313;48.552;9.370;2023-03-12T02:16:08;0.40;99.90
4602;DHT22;2313;48.552;9.370;2023-03-12T02:18:34;0.40;99.90
4602;DHT22;2313;48.552;9.370;2023-03-12T02:26:15;0.60;99.90
4602;DHT22;2313;48.552;9.370;2023-03-12T02:28:42;0.60;99.90
4602;DHT22;2313;48.552;9.370;2023-03-12T02:31:14;0.60;99.90
4602;DHT22;2313;48.552;9.370;2023-03-12T02:33:41;0.60;99.90
4602;DHT22;2313;48.552;9.370;2023-03-12T02:36:07;0.60;99.90
4602;DHT22;2313;48.552;9.370;2023-03-12T02:41:21;0.50;99.90
4602;DHT22;2313;48.552;9.370;2023-03-12T02:44:12;0.50;99.90
4602;DHT22;2313;48.552;9.370;2023-03-12T02:46:41;0.50;99.90
4602;DHT22;2313;48.552;9.370;2023-03-12T02:49:08;0.50;99.90
4602;DHT22;2313;48.552;9.370;2023-03-12T02:51:33;0.60;99.90
4602;DHT22;2313;48.552;9.370;2023-03-12T02:53:59;0.60;99.90
4602;DHT22;2313;48.552;9.370;2023-03-12T02:56:26;0.60;99.90
4602;DHT22;2313;48.552;9.370;2023-03-12T02:58:52;0.60;99.90
4602;DHT22;2313;48.552;9.370;2023-03-12T03:01:19;0.60;99.90
4602;DHT22;2313;48.552;9.370;2023-03-12T03:03:45;0.60;99.90
4602;DHT22;2313;48.552;9.370;2023-03-12T03:06:11;0.70;99.90
4602;DHT22;2313;48.552;9.370;2023-03-12T03:08:37;0.70;99.90
4602;DHT22;2313;48.552;9.370;2023-03-12T03:11:03;0.70;99.90
4602;DHT22;2313;48.552;9.370;2023-03-12T03:13:29;0.80;99.90
4602;DHT22;2313;48.552;9.370;2023-03-12T03:15:55;0.80;99.90
4602;DHT22;2313;48.552;9.370;2023-03-12T03:18:26;0.80;99.90
4602;DHT22;2313;48.552;9.370;2023-03-12T03:21:00;0.80;99.90
4602;DHT22;2313;48.552;9.370;2023-03-12T03:23:26;0.90;99.90
4602;DHT22;2313;48.552;9.370;2023-03-12T03:25:52;0.90;99.90
4602;DHT22;2313;48.552;9.370;2023-03-12T03:28:23;0.90;99.90
4602;DHT22;2313;48.552;9.370;2023-03-12T03:30:54;1.00;99.90
4602;DHT22;2313;48.552;9.370;2023-03-12T03:33:22;0.90;99.90
4602;DHT22;2313;48.552;9.370;2023-03-12T03:35:48;0.90;99.90
4602;DHT22;2313;48.552;9.370;2023-03-12T03:38:14;0.90;99.90
4602;DHT22;2313;48.552;9.370;2023-03-12T03:40:40;0.90;99.90
4602;DHT22;2313;48.552;9.370;2023-03-12T03:43:05;0.90;99.90
4602;DHT22;2313;48.552;9.370;2023-03-12T03:45:31;1.00;99.90
4602;DHT22;2313;48.552;9.370;2023-03-12T03:47:57;1.10;99.90
4602;DHT22;2313;48.552;9.370;2023-03-12T03:50:22;1.10;99.90
4602;DHT22;2313;48.552;9.370;2023-03-12T03:52:48;1.20;99.90
4602;DHT22;2313;48.552;9.370;2023-03-12T03:55:14;1.10;99.90
4602;DHT22;2313;48.552;9.370;2023-03-12T03:57:39;1.10;99.90
4602;DHT22;2313;48.552;9.370;2023-03-12T04:00:05;1.10;99.90
4602;DHT22;2313;48.552;9.370;2023-03-12T04:02:34;1.10;99.90
4602;DHT22;2313;48.552;9.370;2023-03-12T04:05:00;1.00;99.90
4602;DHT22;2313;48.552;9.370;2023-03-12T04:07:26;1.10;99.90
4602;DHT22;2313;48.552;9.370;2023-03-12T04:09:52;1.10;99.90
4602;DHT22;2313;48.552;9.370;2023-03-12T04:12:18;1.00;99.90
4602;DHT22;2313;48.552;9.370;2023-03-12T04:14:43;1.10;99.90
4602;DHT22;2313;48.552;9.370;2023-03-12T04:17:09;1.20;99.90
4602;DHT22;2313;48.552;9.370;2023-03-12T04:19:35;1.20;99.90
4602;DHT22;2313;48.552;9.370;2023-03-12T04:22:01;1.30;99.90
4602;DHT22;2313;48.552;9.370;2023-03-12T04:24:27;1.30;99.90
4602;DHT22;2313;48.552;9.370;2023-03-12T04:26:52;1.60;99.90
4602;DHT22;2313;48.552;9.370;2023-03-12T04:29:18;1.90;99.90
4602;DHT22;2313;48.552;9.370;2023-03-12T04:31:44;2.20;99.90
4602;DHT22;2313;48.552;9.370;2023-03-12T04:34:10;2.30;99.90
4602;DHT22;2313;48.552;9.370;2023-03-12T04:36:36;2.50;99.90
4602;DHT22;2313;48.552;9.370;2023-03-12T04:39:02;2.60;99.90
4602;DHT22;2313;48.552;9.370;2023-03-12T04:41:32;2.60;99.90
4602;DHT22;2313;48.552;9.370;2023-03-12T04:43:58;2.70;99.90
4602;DHT22;2313;48.552;9.370;2023-03-12T04:46:24;2.80;99.90
4602;DHT22;2313;48.552;9.370;2023-03-12T04:48:49;2.80;99.90
4602;DHT22;2313;48.552;9.370;2023-03-12T04:51:15;2.90;99.90
4602;DHT22;2313;48.552;9.370;2023-03-12T04:53:40;2.90;99.90
4602;DHT22;2313;48.552;9.370;2023-03-12T04:56:06;2.90;99.90
4602;DHT22;2313;48.552;9.370;2023-03-12T04:58:32;2.90;99.90
4602;DHT22;2313;48.552;9.370;2023-03-12T05:00:58;2.90;99.90
4602;DHT22;2313;48.552;9.370;2023-03-12T05:03:23;2.90;99.90
4602;DHT22;2313;48.552;9.370;2023-03-12T05:05:49;2.90;99.90
4602;DHT22;2313;48.552;9.370;2023-03-12T05:08:15;2.90;99.90
4602;DHT22;2313;48.552;9.370;2023-03-12T05:10:41;2.90;99.90
4602;DHT22;2313;48.552;9.370;2023-03-12T05:13:14;2.90;99.90
4602;DHT22;2313;48.552;9.370;2023-03-12T05:15:41;2.90;99.90
4602;DHT22;2313;48.552;9.370;2023-03-12T05:18:07;3.00;99.90
4602;DHT22;2313;48.552;9.370;2023-03-12T05:20:32;3.00;99.90
4602;DHT22;2313;48.552;9.370;2023-03-12T05:22:58;3.00;99.90
4602;DHT22;2313;48.552;9.370;2023-03-12T05:25:23;3.10;99.90
4602;DHT22;2313;48.552;9.370;2023-03-12T05:27:49;3.00;99.90
4602;DHT22;2313;48.552;9.370;2023-03-12T05:30:15;3.00;99.90
4602;DHT22;2313;48.552;9.370;2023-03-12T05:32:40;3.00;99.90
4602;DHT22;2313;48.552;9.370;2023-03-12T05:35:06;3.00;99.90
4602;DHT22;2313;48.552;9.370;2023-03-12T05:37:32;3.00;99.90
4602;DHT22;2313;48.552;9.370;2023-03-12T05:39:57;3.00;99.90
4602;DHT22;2313;48.552;9.370;2023-03-12T05:42:24;3.00;99.90
4602;DHT22;2313;48.552;9.370;2023-03-12T05:44:49;2.90;99.90
4602;DHT22;2313;48.552;9.370;2023-03-12T05:47:16;2.80;99.90
4602;DHT22;2313;48.552;9.370;2023-03-12T05:49:41;2.70;99.90
4602;DHT22;2313;48.552;9.370;2023-03-12T05:52:08;2.60;99.90
4602;DHT22;2313;48.552;9.370;2023-03-12T05:54:34;2.50;99.90
4602;DHT22;2313;48.552;9.370;2023-03-12T05:57:00;2.40;99.90
4602;DHT22;2313;48.552;9.370;2023-03-12T05:59:27;2.40;99.90
4602;DHT22;2313;48.552;9.370;2023-03-12T06:01:53;2.40;99.90
4602;DHT22;2313;48.552;9.370;2023-03-12T06:04:19;2.40;99.90
4602;DHT22;2313;48.552;9.370;2023-03-12T06:06:44;2.40;99.90
4602;DHT22;2313;48.552;9.370;2023-03-12T06:09:10;2.40;99.90
4602;DHT22;2313;48.552;9.370;2023-03-12T06:11:36;2.40;99.90
4602;DHT22;2313;48.552;9.370;2023-03-12T06:14:01;2.40;99.90
4602;DHT22;2313;48.552;9.370;2023-03-12T06:16:27;2.40;99.90
4602;DHT22;2313;48.552;9.370;2023-03-12T06:19:00;2.50;99.90
4602;DHT22;2313;48.552;9.370;2023-03-12T06:21:28;2.50;99.90
4602;DHT22;2313;48.552;9.370;2023-03-12T06:23:54;2.50;99.90
4602;DHT22;2313;48.552;9.370;2023-03-12T06:26:21;2.50;99.90
4602;DHT22;2313;48.552;9.370;2023-03-12T06:28:47;2.50;99.90
4602;DHT22;2313;48.552;9.370;2023-03-12T06:31:17;2.50;99.90
4602;DHT22;2313;48.552;9.370;2023-03-12T06:33:43;2.60;99.90
4602;DHT22;2313;48.552;9.370;2023-03-12T06:36:09;2.60;99.90
4602;DHT22;2313;48.552;9.370;2023-03-12T06:38:35;2.70;99.90
4602;DHT22;2313;48.552;9.370;2023-03-12T06:41:05;2.70;99.90
4602;DHT22;2313;48.552;9.370;2023-03-12T06:43:33;2.70;99.90
4602;DHT22;2313;48.552;9.370;2023-03-12T06:45:59;2.70;99.90
4602;DHT22;2313;48.552;9.370;2023-03-12T06:48:26;2.70;99.90
4602;DHT22;2313;48.552;9.370;2023-03-12T06:50:52;2.80;99.90
4602;DHT22;2313;48.552;9.370;2023-03-12T06:53:19;2.90;99.90
4602;DHT22;2313;48.552;9.370;2023-03-12T06:55:45;2.90;99.90
4602;DHT22;2313;48.552;9.370;2023-03-12T06:58:11;2.90;99.90
4602;DHT22;2313;48.552;9.370;2023-03-12T07:00:37;3.00;99.90
4602;DHT22;2313;48.552;9.370;2023-03-12T07:03:02;3.00;99.90
4602;DHT22;2313;48.552;9.370;2023-03-12T07:05:28;3.10;99.90
4602;DHT22;2313;48.552;9.370;2023-03-12T07:07:54;3.10;99.90
4602;DHT22;2313;48.552;9.370;2023-03-12T07:10:20;3.20;99.90
4602;DHT22;2313;48.552;9.370;2023-03-12T07:12:46;3.30;99.90
4602;DHT22;2313;48.552;9.370;2023-03-12T07:15:12;3.30;99.90
4602;DHT22;2313;48.552;9.370;2023-03-12T07:17:38;3.40;99.90
4602;DHT22;2313;48.552;9.370;2023-03-12T07:20:04;3.50;99.90
4602;DHT22;2313;48.552;9.370;2023-03-12T07:22:30;3.60;99.90
4602;DHT22;2313;48.552;9.370;2023-03-12T07:24:55;3.70;99.90
4602;DHT22;2313;48.552;9.370;2023-03-12T07:27:21;3.70;99.90
4602;DHT22;2313;48.552;9.370;2023-03-12T07:29:53;3.70;99.90
4602;DHT22;2313;48.552;9.370;2023-03-12T07:32:18;3.70;99.90
4602;DHT22;2313;48.552;9.370;2023-03-12T07:34:44;3.80;99.90
4602;DHT22;2313;48.552;9.370;2023-03-12T07:37:10;3.80;99.90
4602;DHT22;2313;48.552;9.370;2023-03-12T07:39:35;3.90;99.90
4602;DHT22;2313;48.552;9.370;2023-03-12T07:42:02;3.90;99.90
4602;DHT22;2313;48.552;9.370;2023-03-12T07:44:27;4.00;99.90
4602;DHT22;2313;48.552;9.370;2023-03-12T07:46:53;4.10;99.90
4602;DHT22;2313;48.552;9.370;2023-03-12T07:49:19;4.00;99.90
4602;DHT22;2313;48.552;9.370;2023-03-12T07:51:44;4.00;99.90
4602;DHT22;2313;48.552;9.370;2023-03-12T07:54:10;4.10;99.90
4602;DHT22;2313;48.552;9.370;2023-03-12T07:56:36;4.10;99.90
4602;DHT22;2313;48.552;9.370;2023-03-12T07:59:01;4.20;99.90
4602;DHT22;2313;48.552;9.370;2023-03-12T08:01:27;4.20;99.90
4602;DHT22;2313;48.552;9.370;2023-03-12T08:04:00;4.30;99.90
4602;DHT22;2313;48.552;9.370;2023-03-12T08:06:27;4.40;99.90
4602;DHT22;2313;48.552;9.370;2023-03-12T08:08:53;4.50;99.90
4602;DHT22;2313;48.552;9.370;2023-03-12T08:11:20;4.60;99.90
4602;DHT22;2313;48.552;9.370;2023-03-12T08:13:45;4.70;99.90
4602;DHT22;2313;48.552;9.370;2023-03-12T08:16:11;4.90;99.90
4602;DHT22;2313;48.552;9.370;2023-03-12T08:18:36;5.10;99.90
4602;DHT22;2313;48.552;9.370;2023-03-12T08:21:02;5.20;99.90
4602;DHT22;2313;48.552;9.370;2023-03-12T08:23:28;5.20;99.90
4602;DHT22;2313;48.552;9.370;2023-03-12T08:25:54;5.10;99.90
4602;DHT22;2313;48.552;9.370;2023-03-12T08:28:21;5.20;99.90
4602;DHT22;2313;48.552;9.370;2023-03-12T08:30:52;5.40;99.90
4602;DHT22;2313;48.552;9.370;2023-03-12T08:33:18;5.50;99.90
4602;DHT22;2313;48.552;9.370;2023-03-12T08:35:44;5.70;99.90
4602;DHT22;2313;48.552;9.370;2023-03-12T08:38:10;5.80;99.90
4602;DHT22;2313;48.552;9.370;2023-03-12T08:40:36;6.00;99.90
4602;DHT22;2313;48.552;9.370;2023-03-12T08:43:02;6.10;99.90
4602;DHT22;2313;48.552;9.370;2023-03-12T08:45:28;6.20;99.90
4602;DHT22;2313;48.552;9.370;2023-03-12T08:47:54;6.20;99.90
4602;DHT22;2313;48.552;9.370;2023-03-12T08:50:19;6.20;99.90
4602;DHT22;2313;48.552;9.370;2023-03-12T08:52:47;6.30;99.90
4602;DHT22;2313;48.552;9.370;2023-03-12T08:55:13;6.30;99.90
4602;DHT22;2313;48.552;9.370;2023-03-12T08:57:39;6.50;99.90
4602;DHT22;2313;48.552;9.370;2023-03-12T09:00:05;6.50;99.90
4602;DHT22;2313;48.552;9.370;2023-03-12T09:02:36;6.60;99.90
4602;DHT22;2313;48.552;9.370;2023-03-12T09:05:02;6.60;99.90
4602;DHT22;2313;48.552;9.370;2023-03-12T09:07:30;6.70;99.90
4602;DHT22;2313;48.552;9.370;2023-03-12T09:09:56;6.80;99.90
4602;DHT22;2313;48.552;9.370;2023-03-12T09:12:23;6.80;99.90
4602;DHT22;2313;48.552;9.370;2023-03-12T09:14:49;6.90;99.90
4602;DHT22;2313;48.552;9.370;2023-03-12T09:17:15;6.90;99.90
4602;DHT22;2313;48.552;9.370;2023-03-12T09:19:41;7.00;99.90
4602;DHT22;2313;48.552;9.370;2023-03-12T09:22:06;7.10;99.90
4602;DHT22;2313;48.552;9.370;2023-03-12T09:24:32;7.20;99.90
4602;DHT22;2313;48.552;9.370;2023-03-12T09:26:58;7.30;99.90
4602;DHT22;2313;48.552;9.370;2023-03-12T09:29:24;7.40;99.90
4602;DHT22;2313;48.552;9.370;2023-03-12T09:31:50;7.40;99.90
4602;DHT22;2313;48.552;9.370;2023-03-12T09:34:16;7.40;99.90
4602;DHT22;2313;48.552;9.370;2023-03-12T09:36:42;7.40;99.90
4602;DHT22;2313;48.552;9.370;2023-03-12T09:39:07;7.50;99.90
4602;DHT22;2313;48.552;9.370;2023-03-12T09:41:37;7.60;99.90
4602;DHT22;2313;48.552;9.370;2023-03-12T09:44:29;7.60;99.90
4602;DHT22;2313;48.552;9.370;2023-03-12T09:47:04;7.60;99.90
4602;DHT22;2313;48.552;9.370;2023-03-12T09:49:47;7.60;99.90
4602;DHT22;2313;48.552;9.370;2023-03-12T09:52:21;7.50;99.90
4602;DHT22;2313;48.552;9.370;2023-03-12T09:55:12;7.60;99.90
4602;DHT22;2313;48.552;9.370;2023-03-12T09:57:42;7.70;99.90
4602;DHT22;2313;48.552;9.370;2023-03-12T10:00:14;7.80;99.90
4602;DHT22;2313;48.552;9.370;2023-03-12T10:05:38;7.90;99.90
4602;DHT22;2313;48.552;9.370;2023-03-12T10:08:37;8.10;99.90
4602;DHT22;2313;48.552;9.370;2023-03-12T10:11:48;8.10;99.90
4602;DHT22;2313;48.552;9.370;2023-03-12T10:14:29;8.30;99.90
4602;DHT22;2313;48.552;9.370;2023-03-12T10:23:23;8.50;99.90
4602;DHT22;2313;48.552;9.370;2023-03-12T10:28:16;8.70;99.90
4602;DHT22;2313;48.552;9.370;2023-03-12T10:30:54;8.80;99.90
4602;DHT22;2313;48.552;9.370;2023-03-12T10:33:24;8.90;99.90
4602;DHT22;2313;48.552;9.370;2023-03-12T10:35:54;8.90;99.90
4602;DHT22;2313;48.552;9.370;2023-03-12T10:38:28;9.00;99.90
4602;DHT22;2313;48.552;9.370;2023-03-12T10:40:54;9.00;99.90
4602;DHT22;2313;48.552;9.370;2023-03-12T10:43:20;9.20;99.90
4602;DHT22;2313;48.552;9.370;2023-03-12T10:45:56;9.40;99.90
4602;DHT22;2313;48.552;9.370;2023-03-12T10:48:25;9.30;99.90
4602;DHT22;2313;48.552;9.370;2023-03-12T10:53:30;9.40;99.90
4602;DHT22;2313;48.552;9.370;2023-03-12T10:56:17;9.50;99.90
4602;DHT22;2313;48.552;9.370;2023-03-12T10:58:49;9.60;99.90
4602;DHT22;2313;48.552;9.370;2023-03-12T11:03:44;9.90;99.90
4602;DHT22;2313;48.552;9.370;2023-03-12T11:06:39;10.00;99.90
4602;DHT22;2313;48.552;9.370;2023-03-12T11:09:18;10.20;99.90
4602;DHT22;2313;48.552;9.370;2023-03-12T11:11:46;10.30;99.90
4602;DHT22;2313;48.552;9.370;2023-03-12T11:14:25;10.20;99.90
4602;DHT22;2313;48.552;9.370;2023-03-12T11:16:51;10.20;99.90
4602;DHT22;2313;48.552;9.370;2023-03-12T11:19:31;10.10;99.90
4602;DHT22;2313;48.552;9.370;2023-03-12T11:22:06;10.10;99.90
4602;DHT22;2313;48.552;9.370;2023-03-12T11:24:34;10.10;99.90
4602;DHT22;2313;48.552;9.370;2023-03-12T11:27:17;10.10;99.90
4602;DHT22;2313;48.552;9.370;2023-03-12T11:29:49;10.00;99.90
4602;DHT22;2313;48.552;9.370;2023-03-12T11:32:18;10.00;99.90
4602;DHT22;2313;48.552;9.370;2023-03-12T11:34:48;10.00;99.90
4602;DHT22;2313;48.552;9.370;2023-03-12T11:40:23;9.90;99.90
4602;DHT22;2313;48.552;9.370;2023-03-12T11:43:05;9.90;99.90
4602;DHT22;2313;48.552;9.370;2023-03-12T11:45:46;9.90;99.90
4602;DHT22;2313;48.552;9.370;2023-03-12T11:48:21;10.00;99.90
4602;DHT22;2313;48.552;9.370;2023-03-12T11:56:38;10.20;99.90
4602;DHT22;2313;48.552;9.370;2023-03-12T12:23:30;11.00;99.90
4602;DHT22;2313;48.552;9.370;2023-03-12T12:26:03;11.10;99.90
4602;DHT22;2313;48.552;9.370;2023-03-12T12:28:44;11.10;99.90
4602;DHT22;2313;48.552;9.370;2023-03-12T12:34:44;11.20;99.90
4602;DHT22;2313;48.552;9.370;2023-03-12T12:43:05;11.50;99.90
4602;DHT22;2313;48.552;9.370;2023-03-12T12:45:38;11.60;99.90
4602;DHT22;2313;48.552;9.370;2023-03-12T12:48:21;11.80;99.90
4602;DHT22;2313;48.552;9.370;2023-03-12T12:50:50;11.80;99.90
4602;DHT22;2313;48.552;9.370;2023-03-12T13:01:46;12.10;99.90
4602;DHT22;2313;48.552;9.370;2023-03-12T13:04:18;12.20;99.90
4602;DHT22;2313;48.552;9.370;2023-03-12T13:07:00;12.20;99.90
4602;DHT22;2313;48.552;9.370;2023-03-12T13:09:44;12.10;99.90
4602;DHT22;2313;48.552;9.370;2023-03-12T13:15:44;12.10;99.90
4602;DHT22;2313;48.552;9.370;2023-03-12T13:18:30;12.10;99.90
4602;DHT22;2313;48.552;9.370;2023-03-12T13:21:11;12.00;99.90
4602;DHT22;2313;48.552;9.370;2023-03-12T13:29:36;11.70;99.90
4602;DHT22;2313;48.552;9.370;2023-03-12T13:32:04;11.70;99.90
4602;DHT22;2313;48.552;9.370;2023-03-12T13:34:40;11.70;99.90
4602;DHT22;2313;48.552;9.370;2023-03-12T13:37:19;11.70;99.90
4602;DHT22;2313;48.552;9.370;2023-03-12T13:39:45;11.80;99.90
4602;DHT22;2313;48.552;9.370;2023-03-12T13:44:49;11.80;99.90
4602;DHT22;2313;48.552;9.370;2023-03-12T13:47:19;11.80;99.90
4602;DHT22;2313;48.552;9.370;2023-03-12T13:50:00;11.90;99.90
4602;DHT22;2313;48.552;9.370;2023-03-12T13:53:00;11.80;99.90
4602;DHT22;2313;48.552;9.370;2023-03-12T13:55:35;11.80;99.90
4602;DHT22;2313;48.552;9.370;2023-03-12T13:58:12;11.60;99.90
4602;DHT22;2313;48.552;9.370;2023-03-12T14:00:45;11.60;99.90
4602;DHT22;2313;48.552;9.370;2023-03-12T14:03:25;11.50;99.90
4602;DHT22;2313;48.552;9.370;2023-03-12T14:11:39;11.60;99.90
4602;DHT22;2313;48.552;9.370;2023-03-12T14:16:45;11.60;99.90
4602;DHT22;2313;48.552;9.370;2023-03-12T14:19:15;11.50;99.90
4602;DHT22;2313;48.552;9.370;2023-03-12T14:21:44;11.60;99.90
4602;DHT22;2313;48.552;9.370;2023-03-12T14:24:37;11.50;99.90
4602;DHT22;2313;48.552;9.370;2023-03-12T14:27:05;11.40;99.90
4602;DHT22;2313;48.552;9.370;2023-03-12T14:29:38;11.30;99.90
4602;DHT22;2313;48.552;9.370;2023-03-12T14:32:16;11.30;99.90
4602;DHT22;2313;48.552;9.370;2023-03-12T14:35:24;11.20;99.90
4602;DHT22;2313;48.552;9.370;2023-03-12T14:43:17;11.00;99.90
4602;DHT22;2313;48.552;9.370;2023-03-12T14:45:42;11.10;99.90
4602;DHT22;2313;48.552;9.370;2023-03-12T14:48:09;11.10;99.90
4602;DHT22;2313;48.552;9.370;2023-03-12T14:50:38;11.10;99.90
4602;DHT22;2313;48.552;9.370;2023-03-12T14:53:34;11.10;99.90
4602;DHT22;2313;48.552;9.370;2023-03-12T14:56:06;10.90;99.90
4602;DHT22;2313;48.552;9.370;2023-03-12T14:58:34;10.90;99.90
4602;DHT22;2313;48.552;9.370;2023-03-12T15:01:04;11.00;99.90
4602;DHT22;2313;48.552;9.370;2023-03-12T15:03:40;11.00;99.90
4602;DHT22;2313;48.552;9.370;2023-03-12T15:06:17;10.90;99.90
4602;DHT22;2313;48.552;9.370;2023-03-12T15:08:44;10.90;99.90
4602;DHT22;2313;48.552;9.370;2023-03-12T15:11:10;10.90;99.90
4602;DHT22;2313;48.552;9.370;2023-03-12T15:13:38;10.90;99.90
4602;DHT22;2313;48.552;9.370;2023-03-12T15:16:04;11.00;99.90
4602;DHT22;2313;48.552;9.370;2023-03-12T15:18:31;11.00;99.90
4602;DHT22;2313;48.552;9.370;2023-03-12T15:20:58;11.00;99.90
4602;DHT22;2313;48.552;9.370;2023-03-12T15:23:29;11.10;99.90
4602;DHT22;2313;48.552;9.370;2023-03-12T15:26:10;11.00;99.90
4602;DHT22;2313;48.552;9.370;2023-03-12T15:28:36;11.00;99.90
4602;DHT22;2313;48.552;9.370;2023-03-12T15:31:09;10.90;99.90
4602;DHT22;2313;48.552;9.370;2023-03-12T15:33:37;10.80;99.90
4602;DHT22;2313;48.552;9.370;2023-03-12T15:38:49;10.90;99.90
4602;DHT22;2313;48.552;9.370;2023-03-12T15:41:33;10.80;99.90
4602;DHT22;2313;48.552;9.370;2023-03-12T15:44:00;10.90;99.90
4602;DHT22;2313;48.552;9.370;2023-03-12T15:46:26;11.00;99.90
4602;DHT22;2313;48.552;9.370;2023-03-12T15:48:55;10.90;99.90
4602;DHT22;2313;48.552;9.370;2023-03-12T15:51:35;11.00;99.90
4602;DHT22;2313;48.552;9.370;2023-03-12T15:54:26;11.10;99.90
4602;DHT22;2313;48.552;9.370;2023-03-12T15:56:52;11.10;99.90
4602;DHT22;2313;48.552;9.370;2023-03-12T15:59:25;11.10;99.90
4602;DHT22;2313;48.552;9.370;2023-03-12T16:01:53;11.10;99.90
4602;DHT22;2313;48.552;9.370;2023-03-12T16:04:20;11.10;99.90
4602;DHT22;2313;48.552;9.370;2023-03-12T16:06:47;11.10;99.90
4602;DHT22;2313;48.552;9.370;2023-03-12T16:09:19;11.10;99.90
4602;DHT22;2313;48.552;9.370;2023-03-12T16:11:46;11.00;99.90
4602;DHT22;2313;48.552;9.370;2023-03-12T16:14:32;11.00;99.90
4602;DHT22;2313;48.552;9.370;2023-03-12T16:16:58;11.00;99.90
4602;DHT22;2313;48.552;9.370;2023-03-12T16:19:27;11.00;99.90
4602;DHT22;2313;48.552;9.370;2023-03-12T16:21:53;11.00;99.90
4602;DHT22;2313;48.552;9.370;2023-03-12T16:24:18;11.00;99.90
4602;DHT22;2313;48.552;9.370;2023-03-12T16:26:53;11.10;99.90
4602;DHT22;2313;48.552;9.370;2023-03-12T16:29:20;11.10;99.90
4602;DHT22;2313;48.552;9.370;2023-03-12T16:31:51;11.10;99.90
4602;DHT22;2313;48.552;9.370;2023-03-12T16:34:18;11.00;99.90
4602;DHT22;2313;48.552;9.370;2023-03-12T16:36:44;10.90;99.90
4602;DHT22;2313;48.552;9.370;2023-03-12T16:39:09;10.90;99.90
4602;DHT22;2313;48.552;9.370;2023-03-12T16:41:35;10.80;99.90
4602;DHT22;2313;48.552;9.370;2023-03-12T16:44:01;10.80;99.90
4602;DHT22;2313;48.552;9.370;2023-03-12T16:46:30;10.80;99.90
4602;DHT22;2313;48.552;9.370;2023-03-12T16:48:57;10.70;99.90
4602;DHT22;2313;48.552;9.370;2023-03-12T16:51:23;10.70;99.90
4602;DHT22;2313;48.552;9.370;2023-03-12T16:53:49;10.70;99.90
4602;DHT22;2313;48.552;9.370;2023-03-12T16:56:20;10.70;99.90
4602;DHT22;2313;48.552;9.370;2023-03-12T16:58:47;10.60;99.90
4602;DHT22;2313;48.552;9.370;2023-03-12T17:01:19;10.60;99.90
4602;DHT22;2313;48.552;9.370;2023-03-12T17:03:46;10.60;99.90
4602;DHT22;2313;48.552;9.370;2023-03-12T17:06:22;10.60;99.90
4602;DHT22;2313;48.552;9.370;2023-03-12T17:08:49;10.60;99.90
4602;DHT22;2313;48.552;9.370;2023-03-12T17:11:20;10.50;99.90
4602;DHT22;2313;48.552;9.370;2023-03-12T17:13:51;10.50;99.90
4602;DHT22;2313;48.552;9.370;2023-03-12T17:16:18;10.50;99.90
4602;DHT22;2313;48.552;9.370;2023-03-12T17:18:43;10.40;99.90
4602;DHT22;2313;48.552;9.370;2023-03-12T17:21:11;10.40;99.90
4602;DHT22;2313;48.552;9.370;2023-03-12T17:23:37;10.30;99.90
4602;DHT22;2313;48.552;9.370;2023-03-12T17:26:03;10.40;99.90
4602;DHT22;2313;48.552;9.370;2023-03-12T17:28:29;10.30;99.90
4602;DHT22;2313;48.552;9.370;2023-03-12T17:30:55;10.30;99.90
4602;DHT22;2313;48.552;9.370;2023-03-12T17:33:20;10.30;99.90
4602;DHT22;2313;48.552;9.370;2023-03-12T17:35:58;10.30;99.90
4602;DHT22;2313;48.552;9.370;2023-03-12T17:38:25;10.30;99.90
4602;DHT22;2313;48.552;9.370;2023-03-12T17:40:51;10.30;99.90
4602;DHT22;2313;48.552;9.370;2023-03-12T17:43:16;10.30;99.90
4602;DHT22;2313;48.552;9.370;2023-03-12T17:45:42;10.30;99.90
4602;DHT22;2313;48.552;9.370;2023-03-12T17:48:08;10.30;99.90
4602;DHT22;2313;48.552;9.370;2023-03-12T17:50:33;10.30;99.90
4602;DHT22;2313;48.552;9.370;2023-03-12T17:52:59;10.30;99.90
4602;DHT22;2313;48.552;9.370;2023-03-12T17:55:25;10.20;99.90
4602;DHT22;2313;48.552;9.370;2023-03-12T17:57:51;10.20;99.90
4602;DHT22;2313;48.552;9.370;2023-03-12T18:00:17;10.20;99.90
4602;DHT22;2313;48.552;9.370;2023-03-12T18:02:42;10.20;99.90
4602;DHT22;2313;48.552;9.370;2023-03-12T18:05:10;10.20;99.90
4602;DHT22;2313;48.552;9.370;2023-03-12T18:07:36;10.20;99.90